createdAt,value
2018-04-24T00:02:19.984Z,13.35
2018-04-24T00:04:51.420Z,13.31
2018-04-24T00:07:22.566Z,13.45
2018-04-24T00:09:54.278Z,13.18
2018-04-24T00:12:25.327Z,13.17
2018-04-24T00:14:56.445Z,13.12
2018-04-24T00:17:27.575Z,13.17
2018-04-24T00:19:58.799Z,13.19
2018-04-24T00:22:31.296Z,13.27
2018-04-24T00:25:02.296Z,13.23
2018-04-24T00:27:33.613Z,13.02
2018-04-24T00:30:04.688Z,12.87
2018-04-24T00:32:35.817Z,12.39
2018-04-24T00:35:07.042Z,12.21
2018-04-24T00:37:38.333Z,12.08
2018-04-24T00:40:09.498Z,12.24
2018-04-24T00:42:40.633Z,12.02
2018-04-24T00:45:11.777Z,12.12
2018-04-24T00:47:42.733Z,12.23
2018-04-24T00:50:13.754Z,11.91
2018-04-24T00:52:44.827Z,12.27
2018-04-24T00:55:15.932Z,12.63
2018-04-24T00:57:47.161Z,12.88
2018-04-24T01:00:18.290Z,12.75
2018-04-24T01:02:49.344Z,12.80
2018-04-24T01:05:20.441Z,12.38
2018-04-24T01:07:51.581Z,12.62
2018-04-24T01:10:22.724Z,12.14
2018-04-24T01:12:53.792Z,11.95
2018-04-24T01:15:24.980Z,11.54
2018-04-24T01:17:56.106Z,12.15
2018-04-24T01:20:27.698Z,12.61
2018-04-24T01:22:58.884Z,12.77
2018-04-24T01:25:30.027Z,12.79
2018-04-24T01:28:02.522Z,12.13
2018-04-24T01:30:34.759Z,12.50
2018-04-24T01:33:05.954Z,12.53
2018-04-24T01:35:37.675Z,12.52
2018-04-24T01:38:08.891Z,12.41
2018-04-24T01:40:40.224Z,12.50
2018-04-24T01:43:11.292Z,11.67
2018-04-24T01:45:42.332Z,11.95
2018-04-24T01:48:13.359Z,12.17
2018-04-24T01:50:44.497Z,12.47
2018-04-24T01:53:15.656Z,12.67
2018-04-24T01:55:46.749Z,12.55
2018-04-24T01:58:18.033Z,12.51
2018-04-24T02:00:49.537Z,12.65
2018-04-24T02:03:20.809Z,12.62
2018-04-24T02:05:52.017Z,12.55
2018-04-24T02:08:23.840Z,12.58
2018-04-24T02:10:54.919Z,12.61
2018-04-24T02:13:26.014Z,12.55
2018-04-24T02:15:57.422Z,12.52
2018-04-24T02:18:28.563Z,12.53
2018-04-24T02:20:59.660Z,12.66
2018-04-24T02:23:30.738Z,12.60
2018-04-24T02:26:02.676Z,12.53
2018-04-24T02:28:33.741Z,12.64
2018-04-24T02:31:05.844Z,12.61
2018-04-24T02:33:36.931Z,12.52
2018-04-24T02:36:07.888Z,12.55
2018-04-24T02:38:38.991Z,12.70
2018-04-24T02:41:10.014Z,12.60
2018-04-24T02:43:41.249Z,12.52
2018-04-24T02:46:12.533Z,12.47
2018-04-24T02:48:43.920Z,12.47
2018-04-24T02:51:15.054Z,12.48
2018-04-24T02:53:46.268Z,12.52
2018-04-24T02:56:17.569Z,12.50
2018-04-24T02:58:48.822Z,12.55
2018-04-24T03:01:20.730Z,12.58
2018-04-24T03:03:51.775Z,12.54
2018-04-24T03:06:22.977Z,12.49
2018-04-24T03:08:54.077Z,12.51
2018-04-24T03:11:25.715Z,12.45
2018-04-24T03:13:57.094Z,12.48
2018-04-24T03:16:28.280Z,12.38
2018-04-24T03:18:59.287Z,12.51
2018-04-24T03:21:30.278Z,12.38
2018-04-24T03:24:01.622Z,12.42
2018-04-24T03:26:33.275Z,12.42
2018-04-24T03:29:04.554Z,12.43
2018-04-24T03:31:35.687Z,12.44
2018-04-24T03:34:06.820Z,12.44
2018-04-24T03:36:37.852Z,12.35
2018-04-24T03:39:09.028Z,12.37
2018-04-24T03:41:40.099Z,12.37
2018-04-24T03:44:11.302Z,12.30
2018-04-24T03:46:42.399Z,12.37
2018-04-24T03:49:13.606Z,12.37
2018-04-24T03:51:44.714Z,12.39
2018-04-24T03:54:16.028Z,12.40
2018-04-24T03:56:47.136Z,12.31
2018-04-24T03:59:18.397Z,12.30
2018-04-24T04:01:49.513Z,12.25
2018-04-24T04:04:20.879Z,12.39
2018-04-24T04:06:51.823Z,12.38
2018-04-24T04:09:23.203Z,12.31
2018-04-24T04:11:54.418Z,12.31
2018-04-24T04:14:25.612Z,12.37
2018-04-24T04:16:57.241Z,12.27
2018-04-24T04:20:41.505Z,12.27
2018-04-24T04:24:26.894Z,12.21
2018-04-24T04:26:58.143Z,12.20
2018-04-24T04:29:29.414Z,12.22
2018-04-24T04:32:01.490Z,12.22
2018-04-24T04:34:33.557Z,12.11
2018-04-24T04:37:04.789Z,12.20
2018-04-24T04:39:35.920Z,12.31
2018-04-24T04:42:07.925Z,12.27
2018-04-24T04:44:42.204Z,12.39
2018-04-24T04:47:15.059Z,12.19
2018-04-24T04:49:47.972Z,11.80
2018-04-24T04:52:26.613Z,12.04
2018-04-24T04:55:08.423Z,11.95
2018-04-24T05:07:18.671Z,12.45
2018-04-24T05:09:49.701Z,12.30
2018-04-24T05:12:20.364Z,12.51
2018-04-24T05:14:51.052Z,12.43
2018-04-24T05:17:21.664Z,12.58
2018-04-24T05:19:52.448Z,12.68
2018-04-24T05:22:23.210Z,12.39
2018-04-24T05:24:55.255Z,12.81
2018-04-24T05:27:26.004Z,12.84
2018-04-24T05:29:56.587Z,13.02
2018-04-24T05:32:27.301Z,12.79
2018-04-24T05:34:57.991Z,12.73
2018-04-24T05:37:28.691Z,12.63
2018-04-24T05:39:59.428Z,12.63
2018-04-24T05:42:30.304Z,12.83
2018-04-24T05:45:01.072Z,12.94
2018-04-24T05:47:31.856Z,13.13
2018-04-24T05:50:02.489Z,13.41
2018-04-24T05:52:33.228Z,13.17
2018-04-24T05:55:03.905Z,13.02
2018-04-24T05:57:34.540Z,13.07
2018-04-24T06:00:05.277Z,12.95
2018-04-24T06:02:36.022Z,12.91
2018-04-24T06:05:07.283Z,12.81
2018-04-24T06:07:37.779Z,12.79
2018-04-24T06:10:08.785Z,12.96
2018-04-24T06:12:39.759Z,13.12
2018-04-24T06:15:10.939Z,13.00
2018-04-24T06:17:41.637Z,13.10
2018-04-24T06:20:12.293Z,13.04
2018-04-24T06:22:43.004Z,13.38
2018-04-24T06:25:13.716Z,13.03
2018-04-24T06:27:44.778Z,13.23
2018-04-24T06:30:15.818Z,13.06
2018-04-24T06:32:46.505Z,13.04
2018-04-24T06:35:17.289Z,13.08
2018-04-24T06:37:47.902Z,12.85
2018-04-24T06:40:18.489Z,13.10
2018-04-24T06:42:49.211Z,12.90
2018-04-24T06:45:19.962Z,12.93
2018-04-24T06:47:50.829Z,12.96
2018-04-24T06:50:21.440Z,12.65
2018-04-24T06:52:52.103Z,12.59
2018-04-24T06:55:22.930Z,12.96
2018-04-24T06:57:53.967Z,12.78
2018-04-24T07:00:24.601Z,12.83
2018-04-24T07:02:55.288Z,12.82
2018-04-24T07:05:26.439Z,12.96
2018-04-24T07:07:57.178Z,13.08
2018-04-24T07:10:28.025Z,13.00
2018-04-24T07:12:58.679Z,13.26
2018-04-24T07:15:29.552Z,13.29
2018-04-24T07:18:00.198Z,13.88
2018-04-24T07:20:31.316Z,13.87
2018-04-24T07:23:02.035Z,13.98
2018-04-24T07:25:32.932Z,14.40
2018-04-24T07:28:03.581Z,14.13
2018-04-24T07:30:38.841Z,13.84
2018-04-24T07:33:10.360Z,13.51
2018-04-24T07:35:40.988Z,13.50
2018-04-24T07:38:11.678Z,13.50
2018-04-24T07:40:42.375Z,13.28
2018-04-24T07:43:13.521Z,13.37
2018-04-24T07:45:44.224Z,13.62
2018-04-24T07:48:15.045Z,13.74
2018-04-24T07:50:48.772Z,13.61
2018-04-24T07:53:20.444Z,13.71
2018-04-24T07:55:52.297Z,13.51
2018-04-24T07:58:23.133Z,13.77
2018-04-24T08:00:54.128Z,14.04
2018-04-24T08:03:24.682Z,14.36
2018-04-24T08:05:55.880Z,14.07
2018-04-24T08:08:30.923Z,14.02
2018-04-24T08:11:02.880Z,14.09
2018-04-24T08:13:33.632Z,13.81
2018-04-24T08:16:04.288Z,13.90
2018-04-24T08:18:35.005Z,14.16
2018-04-24T08:21:05.754Z,14.02
2018-04-24T08:23:36.934Z,14.21
2018-04-24T08:26:07.532Z,14.09
2018-04-24T08:28:38.241Z,14.30
2018-04-24T08:31:08.976Z,14.48
2018-04-24T08:33:39.616Z,14.00
2018-04-24T08:36:11.374Z,13.97
2018-04-24T08:38:42.268Z,14.34
2018-04-24T08:41:13.039Z,14.66
2018-04-24T08:43:43.946Z,14.20
2018-04-24T08:46:14.703Z,14.15
2018-04-24T08:48:45.779Z,14.30
2018-04-24T08:51:16.300Z,14.26
2018-04-24T08:53:46.865Z,14.56
2018-04-24T08:56:17.835Z,14.47
2018-04-24T08:58:48.561Z,14.48
2018-04-24T09:01:19.311Z,14.30
2018-04-24T09:03:50.429Z,14.62
2018-04-24T09:06:21.207Z,14.76
2018-04-24T09:08:51.832Z,14.40
2018-04-24T09:11:22.807Z,15.01
2018-04-24T09:13:53.468Z,15.42
2018-04-24T09:16:24.196Z,15.27
2018-04-24T09:18:54.767Z,15.01
2018-04-24T09:21:25.476Z,14.93
2018-04-24T09:23:56.165Z,15.41
2018-04-24T09:26:27.375Z,14.99
2018-04-24T09:28:58.080Z,15.08
2018-04-24T09:31:32.795Z,15.28
2018-04-24T09:34:03.479Z,14.94
2018-04-24T09:36:34.288Z,14.87
2018-04-24T09:39:05.938Z,14.97
2018-04-24T09:41:37.070Z,14.93
2018-04-24T09:44:07.706Z,15.04
2018-04-24T09:46:38.351Z,15.12
2018-04-24T09:49:09.511Z,15.63
2018-04-24T09:51:42.669Z,15.22
2018-04-24T09:54:13.931Z,15.39
2018-04-24T09:56:45.659Z,14.86
2018-04-24T09:59:16.576Z,14.95
2018-04-24T10:01:47.355Z,15.01
2018-04-24T10:04:17.948Z,15.02
2018-04-24T10:06:48.628Z,15.62
2018-04-24T10:09:19.364Z,15.90
2018-04-24T10:11:50.271Z,16.26
2018-04-24T10:14:20.785Z,15.90
2018-04-24T10:16:53.164Z,16.27
2018-04-24T10:19:25.858Z,16.36
2018-04-24T10:21:57.635Z,16.49
2018-04-24T10:24:28.191Z,16.12
2018-04-24T10:26:58.973Z,15.91
2018-04-24T10:29:29.626Z,16.36
2018-04-24T10:32:00.281Z,16.52
2018-04-24T10:34:30.988Z,16.36
2018-04-24T10:37:01.983Z,16.49
2018-04-24T10:39:32.809Z,16.78
2018-04-24T10:42:03.594Z,16.70
2018-04-24T10:44:34.398Z,16.73
2018-04-24T10:47:04.979Z,16.48
2018-04-24T10:49:35.821Z,16.24
2018-04-24T10:52:07.162Z,16.30
2018-04-24T10:54:40.108Z,16.28
2018-04-24T10:57:10.960Z,16.25
2018-04-24T10:59:41.612Z,16.46
2018-04-24T11:02:12.212Z,16.64
2018-04-24T11:04:42.730Z,16.78
2018-04-24T11:07:13.647Z,16.69
2018-04-24T11:09:44.220Z,17.25
2018-04-24T11:12:16.880Z,17.78
2018-04-24T11:14:47.568Z,17.10
2018-04-24T11:17:21.349Z,18.02
2018-04-24T11:19:52.780Z,17.13
2018-04-24T11:22:24.093Z,16.81
2018-04-24T11:24:55.273Z,16.51
2018-04-24T11:27:25.944Z,16.65
2018-04-24T11:29:56.603Z,16.88
2018-04-24T11:32:27.130Z,16.92
2018-04-24T11:34:58.064Z,16.96
2018-04-24T11:37:29.188Z,17.24
2018-04-24T11:40:01.277Z,16.94
2018-04-24T11:42:32.399Z,17.09
2018-04-24T11:45:03.239Z,17.23
2018-04-24T11:47:36.304Z,17.08
2018-04-24T11:50:06.996Z,17.58
2018-04-24T11:52:37.960Z,17.11
2018-04-24T11:55:08.476Z,17.50
2018-04-24T11:57:39.246Z,17.26
2018-04-24T12:00:10.069Z,17.54
2018-04-24T12:02:40.973Z,17.20
2018-04-24T12:05:12.049Z,17.23
2018-04-24T12:07:42.686Z,16.98
2018-04-24T12:10:13.497Z,17.10
2018-04-24T12:12:44.728Z,17.20
2018-04-24T12:15:15.180Z,16.99
2018-04-24T12:17:45.809Z,16.90
2018-04-24T12:20:16.495Z,17.43
2018-04-24T12:22:50.609Z,17.64
2018-04-24T12:25:21.329Z,17.44
2018-04-24T12:27:52.057Z,17.55
2018-04-24T12:30:22.638Z,17.23
2018-04-24T12:32:53.464Z,17.51
2018-04-24T12:35:24.160Z,18.10
2018-04-24T12:37:54.870Z,18.01
2018-04-24T12:40:25.589Z,17.36
2018-04-24T12:42:56.231Z,17.59
2018-04-24T12:45:26.990Z,17.46
2018-04-24T12:47:57.648Z,17.76
2018-04-24T12:50:28.201Z,17.89
2018-04-24T12:52:58.891Z,17.81
2018-04-24T12:55:29.468Z,17.92
2018-04-24T12:58:00.126Z,17.77
2018-04-24T13:00:30.823Z,18.14
2018-04-24T13:03:01.596Z,17.82
2018-04-24T13:05:32.368Z,17.91
2018-04-24T13:08:02.986Z,18.07
2018-04-24T13:10:33.657Z,17.67
2018-04-24T13:13:04.367Z,17.47
2018-04-24T13:15:35.058Z,17.47
2018-04-24T13:18:05.676Z,17.65
2018-04-24T13:20:36.424Z,17.85
2018-04-24T13:23:07.021Z,17.89
2018-04-24T13:25:37.677Z,17.91
2018-04-24T13:28:08.456Z,17.79
2018-04-24T13:30:39.320Z,17.68
2018-04-24T13:33:10.008Z,17.71
2018-04-24T13:35:40.715Z,17.52
2018-04-24T13:38:11.425Z,17.47
2018-04-24T13:40:42.224Z,17.37
2018-04-24T13:43:17.433Z,17.41
2018-04-24T13:45:50.761Z,17.76
2018-04-24T13:48:30.547Z,17.66
2018-04-24T13:51:22.316Z,17.54
2018-04-24T13:53:59.851Z,17.56
2018-04-24T13:56:30.554Z,17.59
2018-04-24T13:59:01.398Z,17.40
2018-04-24T14:01:32.343Z,17.61
2018-04-24T14:04:03.187Z,17.60
2018-04-24T14:06:33.881Z,17.82
2018-04-24T14:09:04.744Z,17.88
2018-04-24T14:11:35.830Z,18.04
2018-04-24T14:14:06.640Z,17.90
2018-04-24T14:16:37.341Z,17.58
2018-04-24T14:19:08.517Z,17.61
2018-04-24T14:21:39.252Z,17.66
2018-04-24T14:24:10.003Z,17.55
2018-04-24T14:26:40.669Z,17.85
2018-04-24T14:29:11.299Z,17.75
2018-04-24T14:31:41.860Z,17.69
2018-04-24T14:34:12.856Z,17.92
2018-04-24T14:36:43.480Z,17.69
2018-04-24T14:39:14.565Z,17.85
2018-04-24T14:41:45.189Z,17.98
2018-04-24T14:44:15.748Z,17.89
2018-04-24T14:46:46.446Z,17.90
2018-04-24T14:49:17.556Z,18.06
2018-04-24T14:51:48.637Z,18.08
2018-04-24T14:54:19.300Z,18.20
2018-04-24T14:57:01.409Z,18.07
2018-04-24T14:59:33.192Z,18.07
2018-04-24T15:02:07.732Z,18.29
2018-04-24T15:04:43.847Z,18.41
2018-04-24T15:07:14.741Z,18.40
2018-04-24T15:09:46.025Z,18.14
2018-04-24T15:12:16.661Z,17.90
2018-04-24T15:14:47.323Z,17.98
2018-04-24T15:17:18.160Z,18.16
2018-04-24T15:19:48.779Z,18.19
2018-04-24T15:22:19.632Z,18.24
2018-04-24T15:24:50.314Z,17.71
2018-04-24T15:27:21.044Z,17.95
2018-04-24T15:29:51.896Z,17.87
2018-04-24T15:32:22.550Z,18.19
2018-04-24T15:34:53.744Z,17.98
2018-04-24T15:37:24.674Z,17.86
2018-04-24T15:39:55.412Z,17.69
2018-04-24T15:42:25.984Z,17.65
2018-04-24T15:44:56.668Z,17.65
2018-04-24T15:47:27.564Z,17.72
2018-04-24T15:49:58.200Z,17.53
2018-04-24T15:52:28.988Z,17.58
2018-04-24T15:54:59.695Z,17.67
2018-04-24T15:57:30.229Z,17.76
2018-04-24T16:00:01.069Z,17.67
2018-04-24T16:02:31.824Z,17.83
2018-04-24T16:05:02.744Z,17.53
2018-04-24T16:07:33.464Z,17.53
2018-04-24T16:10:04.335Z,17.77
2018-04-24T16:12:34.809Z,17.73
2018-04-24T16:15:05.515Z,17.57
2018-04-24T16:17:36.144Z,17.65
2018-04-24T16:20:06.820Z,17.96
2018-04-24T16:22:37.439Z,17.55
2018-04-24T16:25:08.255Z,17.66
2018-04-24T16:27:39.077Z,17.48
2018-04-24T16:30:09.997Z,17.53
2018-04-24T16:32:40.644Z,17.44
2018-04-24T16:35:11.691Z,17.46
2018-04-24T16:37:42.430Z,17.48
2018-04-24T16:40:13.221Z,17.48
2018-04-24T16:42:43.849Z,17.48
2018-04-24T16:45:14.465Z,17.31
2018-04-24T16:47:45.116Z,17.34
2018-04-24T16:50:15.887Z,17.39
2018-04-24T16:52:46.415Z,17.32
2018-04-24T16:55:17.210Z,17.33
2018-04-24T16:57:48.148Z,17.28
2018-04-24T17:00:18.824Z,17.16
2018-04-24T17:02:49.467Z,17.23
2018-04-24T17:05:20.465Z,17.24
2018-04-24T17:07:51.630Z,17.11
2018-04-24T17:10:23.146Z,17.14
2018-04-24T17:12:54.136Z,17.18
2018-04-24T17:15:24.808Z,17.00
2018-04-24T17:17:55.485Z,17.06
2018-04-24T17:20:26.363Z,17.25
2018-04-24T17:22:57.400Z,17.02
2018-04-24T17:25:28.386Z,17.24
2018-04-24T17:27:59.107Z,17.16
2018-04-24T17:30:29.787Z,17.08
2018-04-24T17:33:00.455Z,17.16
2018-04-24T17:35:31.523Z,17.09
2018-04-24T17:38:02.578Z,17.06
2018-04-24T17:40:33.433Z,17.24
2018-04-24T17:43:04.104Z,16.83
2018-04-24T17:45:34.933Z,17.08
2018-04-24T17:48:05.541Z,16.69
2018-04-24T17:50:36.373Z,16.77
2018-04-24T17:53:07.183Z,16.65
2018-04-24T17:55:38.147Z,16.65
2018-04-24T17:58:10.411Z,16.56
2018-04-24T18:00:41.729Z,16.57
2018-04-24T18:03:13.420Z,16.69
2018-04-24T18:05:44.441Z,16.66
2018-04-24T18:08:14.973Z,16.88
2018-04-24T18:10:45.745Z,16.76
2018-04-24T18:13:16.381Z,16.32
2018-04-24T18:15:47.333Z,16.17
2018-04-24T18:18:17.847Z,16.12
2018-04-24T18:20:48.878Z,15.87
2018-04-24T18:23:19.821Z,15.93
2018-04-24T18:25:50.473Z,16.18
2018-04-24T18:28:21.937Z,16.48
2018-04-24T18:30:53.019Z,16.44
2018-04-24T18:33:23.592Z,16.24
2018-04-24T18:35:54.852Z,16.27
2018-04-24T18:38:25.838Z,16.21
2018-04-24T18:40:56.796Z,16.08
2018-04-24T18:43:27.426Z,16.20
2018-04-24T18:45:58.407Z,15.93
2018-04-24T18:48:29.231Z,15.56
2018-04-24T18:51:00.867Z,15.37
2018-04-24T18:53:31.485Z,15.07
2018-04-24T18:56:02.441Z,14.92
2018-04-24T18:58:32.943Z,15.39
2018-04-24T19:01:03.556Z,15.43
2018-04-24T19:03:34.199Z,15.64
2018-04-24T19:06:05.194Z,15.45
2018-04-24T19:08:35.924Z,15.20
2018-04-24T19:11:06.590Z,15.71
2018-04-24T19:13:37.716Z,15.60
2018-04-24T19:16:08.492Z,15.89
2018-04-24T19:18:43.073Z,15.89
2018-04-24T19:21:13.795Z,15.68
2018-04-24T19:23:44.642Z,15.58
2018-04-24T19:26:15.171Z,15.49
2018-04-24T19:28:46.341Z,15.47
2018-04-24T19:31:21.517Z,15.48
2018-04-24T19:33:52.187Z,15.77
2018-04-24T19:36:23.100Z,15.65
2018-04-24T19:38:57.746Z,15.32
2018-04-24T19:42:01.043Z,15.43
2018-04-24T19:44:31.641Z,15.42
2018-04-24T19:47:02.168Z,15.22
2018-04-24T19:50:41.342Z,15.34
2018-04-24T19:53:11.992Z,15.28
2018-04-24T19:55:42.523Z,15.25
2018-04-24T19:58:13.226Z,15.27
2018-04-24T20:00:43.837Z,15.16
2018-04-24T20:03:14.925Z,15.44
2018-04-24T20:05:45.615Z,15.59
2018-04-24T20:08:17.592Z,15.56
2018-04-24T20:10:48.463Z,15.55
2018-04-24T20:13:19.306Z,15.47
2018-04-24T20:15:49.903Z,15.58
2018-04-24T20:18:20.656Z,15.32
2018-04-24T20:20:51.179Z,15.39
2018-04-24T20:23:22.061Z,15.23
2018-04-24T20:25:52.645Z,15.46
2018-04-24T20:28:23.581Z,15.09
2018-04-24T20:30:54.149Z,15.26
2018-04-24T20:33:25.178Z,15.18
2018-04-24T20:35:55.748Z,15.34
2018-04-24T20:38:27.081Z,15.12
2018-04-24T20:40:57.728Z,15.18
2018-04-24T20:43:28.431Z,15.11
2018-04-24T20:45:59.167Z,15.06
2018-04-24T20:48:29.868Z,14.98
2018-04-24T20:51:00.577Z,14.89
2018-04-24T20:53:31.357Z,14.76
2018-04-24T20:56:01.932Z,14.60
2018-04-24T20:58:32.756Z,14.70
2018-04-24T21:01:03.507Z,14.69
2018-04-24T21:03:34.504Z,14.69
2018-04-24T21:06:05.311Z,14.58
2018-04-24T21:08:35.957Z,14.52
2018-04-24T21:11:06.636Z,14.30
2018-04-24T21:13:37.552Z,14.59
2018-04-24T21:16:08.156Z,14.26
2018-04-24T21:18:38.914Z,14.41
2018-04-24T21:21:09.537Z,14.26
2018-04-24T21:23:40.420Z,14.37
2018-04-24T21:26:11.279Z,14.17
2018-04-24T21:28:42.024Z,14.40
2018-04-24T21:31:12.627Z,14.43
2018-04-24T21:33:43.412Z,14.32
2018-04-24T21:36:14.029Z,14.35
2018-04-24T21:38:45.017Z,14.19
2018-04-24T21:41:15.780Z,14.27
2018-04-24T21:43:46.492Z,14.27
2018-04-24T21:46:17.023Z,14.32
2018-04-24T21:48:47.734Z,14.34
2018-04-24T21:51:18.288Z,14.30
2018-04-24T21:53:49.145Z,13.98
2018-04-24T21:56:19.749Z,14.13
2018-04-24T21:58:50.452Z,13.91
2018-04-24T22:01:21.209Z,14.10
2018-04-24T22:03:51.942Z,13.99
2018-04-24T22:06:22.555Z,13.85
2018-04-24T22:08:53.449Z,13.92
2018-04-24T22:11:24.029Z,13.89
2018-04-24T22:13:54.646Z,13.65
2018-04-24T22:16:25.229Z,13.54
2018-04-24T22:18:55.968Z,13.54
2018-04-24T22:21:26.601Z,13.30
2018-04-24T22:23:57.361Z,13.26
2018-04-24T22:26:28.220Z,13.28
2018-04-24T22:28:58.960Z,13.28
2018-04-24T22:31:29.538Z,13.52
2018-04-24T22:34:00.218Z,13.55
2018-04-24T22:36:30.861Z,13.62
2018-04-24T22:39:01.942Z,13.66
2018-04-24T22:41:32.637Z,13.51
2018-04-24T22:44:03.923Z,13.69
2018-04-24T22:46:34.471Z,13.51
2018-04-24T22:49:05.146Z,13.58
2018-04-24T22:51:35.758Z,13.78
2018-04-24T22:54:06.538Z,13.87
2018-04-24T22:56:37.228Z,13.74
2018-04-24T22:59:07.993Z,13.81
2018-04-24T23:01:38.511Z,13.83
2018-04-24T23:04:09.189Z,13.64
2018-04-24T23:06:39.848Z,13.46
2018-04-24T23:09:10.683Z,13.76
2018-04-24T23:11:52.109Z,13.88
2018-04-24T23:14:39.152Z,13.89
2018-04-24T23:17:26.714Z,13.85
2018-04-24T23:20:14.206Z,13.81
2018-04-24T23:22:44.600Z,13.76
2018-04-24T23:25:15.301Z,13.72
2018-04-24T23:27:45.965Z,13.54
2018-04-24T23:30:16.677Z,13.45
2018-04-24T23:32:47.457Z,13.75
2018-04-24T23:35:18.193Z,13.86
2018-04-24T23:37:48.884Z,13.83
2018-04-24T23:40:20.039Z,13.44
2018-04-24T23:42:50.671Z,13.58
2018-04-24T23:45:21.492Z,13.38
2018-04-24T23:47:52.068Z,13.73
2018-04-24T23:50:22.723Z,13.70
2018-04-24T23:52:53.282Z,13.33
2018-04-24T23:55:23.994Z,13.60
2018-04-24T23:57:55.172Z,13.64
